Pagrindinis puslapis
METAR-TAF:

METAR-TAF

Oro uostai :

Vitebskas, Baltarusija

platuma: 55-10N, ilguma: 030-13E, Aukštis: 176 m

Dabartinis oras

Ataskaita buvo paskelbta 5 valandos ir 59 minutes, ne 16:00 UTC
Vėjas 6 kt iš Pietų
Temperatūra 4°C
Drėgmė 100%
Slėgis 1011 hPa
Matomumas: 5000 m
Apsiniaukę ne aukštis 900 ft
rūkana

METAR: UMII 101600Z 19003MPS 5000 BR OVC009 04/04 Q1011 R23/290065 TEMPO 2000 BKN005

Laikas: 00:59 (21:59 UTC)

Prognozė

Ataskaita buvo paskelbta 7 valandos ir 56 minutes, ne 14:03 UTC
Prognozė galioja nuo 10 metu 15 UTC su 10 metu 24 UTC
Vėjas 12 kt iš Pietų
Matomumas: 3000 m
Su prošvaistėmis ne aukštis 700 ft
rūkana
Laikinai
nuo 10 metu 15 UTC su 10 metu 18 UTC
Vėjas 4 kt nuo kintamojo kryptimis
Matomumas: 0500 m
ne aukštis 200 ft
rūkas

TAF: UMII 101403Z 1015/1024 19006MPS 3000 BR BKN007 TEMPO 1015/1018 VRB02MPS 0500 FG VV002

Orai ataskaitas ir orų prognozės (METAR, TAF).

turimą stotys yra geltonos ir raudonos taškus žemėlapyje.

Perkelti pele per norėdami pamatyti stoties vardą.

Tada spustelėkite, norėdami matyti oro stebėjimo ir prognozės.

Norėdami pakeisti žemėlapį: spustelėkite ant žalios mygtukų su juodo kryžiaus žemyn,; žalią mygtuką su brūkšneliu, jei norite nutolinti; arba žalių rodyklių gretimoms žemėlapius.


METAR-TAF: